메인 페이지
METAR-TAF:

METAR-TAF

공항 :

퍼스 공항

퍼스, 오스트레일리아

위도: 31-56S, 경도: 115-57E, 고도: 20m

현재 날씨관측

예보는 25분 전, 20:30시(UTC)에 발표되었습니다.
북북동5kt
온도 13°C
습도 94%
기압 1012 hPa
시정 10km 이상
고도 3500ft 상공 구름 보통
고도 6800ft 상공 구름 많음

METAR: YPPH 202030Z 03005KT 9999 SCT035 BKN068 13/12 Q1012 INTER 2145/2330 4000 SHRA SCT015

시각: 04:55 (20:55 UTC)

예보

예보는 7분 전, 20:48시(UTC)에 발표되었습니다.
예보 대상 시간: 20일 20시부터 21일 24시까지 (UTC)
북북동5kt
시정 10km 이상
고도 3500ft 상공 구름 보통
약한소나기
21일 0100시부터 (UTC)
12kt
시정 10km 이상
고도 3000ft 상공 구름 많음
약한소나기
21일 0500시부터 (UTC)
남서15kt, 순간 최대 풍속 25kt
시정 10km 이상
고도 3000ft 상공 구름 많음
약한소나기
21일 1600시부터 (UTC)
남남동5kt
시정: 4000m
고도 4500ft 상공 구름 보통
고도 1500ft 상공 구름 보통
소나기

TAF: YPPH 202048Z 2020/2124 03005KT 9999 -SHRA SCT035 FM210100 27012KT 9999 -SHRA BKN030 FM210500 23015G25KT 9999 -SHRA BKN030 FM211600 16005KT 9999 SCT045 INTER 2022/2110 4000 SHRA SCT015

4,000개 이상의 공항 관측 자료 및 예보 (METAR 및 TAF 보고).

지도상에서 검색 가능한 기상관측소가 노란 점과 빨간 점으로 표시되어 있습니다.

기상관측소 명을 보려면 표시 위로 마우스를 이동하세요.

날씨 관측과 예보를 보려면 클릭하세요.

지도 변경 : 확대하려면 엑스 표시가 있는 녹색 버튼, 축소하려면 빼기 표시가 있는 녹색 버튼, 다음 페이지의 지도를 보려면 녹색 화살표를 클릭하세요.


METAR-TAF: